createdAt,value
2022-11-07T00:01:20.050Z,9.45
2022-11-07T00:03:47.458Z,9.50
2022-11-07T00:06:15.260Z,10.50
2022-11-07T00:08:42.704Z,10.13
2022-11-07T00:11:10.202Z,10.18
2022-11-07T00:13:37.605Z,9.90
2022-11-07T00:16:10.319Z,10.38
2022-11-07T00:18:37.760Z,9.25
2022-11-07T00:21:07.229Z,9.80
2022-11-07T00:23:34.984Z,9.75
2022-11-07T00:26:06.813Z,9.65
2022-11-07T00:28:37.975Z,8.88
2022-11-07T00:31:06.699Z,9.55
2022-11-07T00:33:34.607Z,9.40
2022-11-07T00:36:02.344Z,9.88
2022-11-07T00:38:30.165Z,10.15
2022-11-07T00:40:59.062Z,9.10
2022-11-07T00:43:27.165Z,10.40
2022-11-07T00:45:54.566Z,9.65
2022-11-07T00:48:22.400Z,10.25
2022-11-07T00:50:50.228Z,10.35
2022-11-07T00:53:17.924Z,10.23
2022-11-07T00:55:45.621Z,10.63
2022-11-07T00:58:14.438Z,10.70
2022-11-07T01:00:42.503Z,9.63
2022-11-07T01:03:28.571Z,10.07
2022-11-07T01:06:01.504Z,9.07
2022-11-07T01:08:29.374Z,9.63
2022-11-07T01:10:57.651Z,10.20
2022-11-07T01:13:25.936Z,10.27
2022-11-07T01:15:53.469Z,10.50
2022-11-07T01:18:20.841Z,9.55
2022-11-07T01:20:49.690Z,10.43
2022-11-07T01:23:18.191Z,11.65
2022-11-07T01:25:46.126Z,13.23
2022-11-07T01:28:13.515Z,10.35
2022-11-07T01:30:43.147Z,10.52
2022-11-07T01:33:10.679Z,10.02
2022-11-07T01:35:38.278Z,9.55
2022-11-07T01:38:05.696Z,9.13
2022-11-07T01:40:56.445Z,10.35
2022-11-07T01:43:40.718Z,10.75
2022-11-07T01:46:08.146Z,11.07
2022-11-07T01:48:35.602Z,10.13
2022-11-07T01:51:03.115Z,9.75
2022-11-07T01:53:30.569Z,10.45
2022-11-07T01:55:58.008Z,11.00
2022-11-07T01:58:25.412Z,10.75
2022-11-07T02:00:52.873Z,10.25
2022-11-07T02:03:21.208Z,10.43
2022-11-07T02:05:59.063Z,11.32
2022-11-07T02:08:27.609Z,10.93
2022-11-07T02:10:56.546Z,11.38
2022-11-07T02:13:27.600Z,11.00
2022-11-07T02:15:55.092Z,10.75
2022-11-07T02:18:23.129Z,10.88
2022-11-07T02:20:51.594Z,10.23
2022-11-07T02:23:26.655Z,10.27
2022-11-07T02:25:54.410Z,10.15
2022-11-07T02:28:22.379Z,10.85
2022-11-07T02:30:49.889Z,11.43
2022-11-07T02:33:22.676Z,10.57
2022-11-07T02:35:52.330Z,10.68
2022-11-07T02:38:19.728Z,10.07
2022-11-07T02:40:55.676Z,10.32
2022-11-07T02:43:27.282Z,10.85
2022-11-07T02:45:56.465Z,11.60
2022-11-07T02:48:28.972Z,10.07
2022-11-07T02:50:56.837Z,11.18
2022-11-07T02:53:24.701Z,11.10
2022-11-07T02:55:52.130Z,11.10
2022-11-07T02:58:19.546Z,10.80
2022-11-07T03:00:47.068Z,11.45
2022-11-07T03:03:15.023Z,10.80
2022-11-07T03:05:42.636Z,11.77
2022-11-07T03:08:10.108Z,11.05
2022-11-07T03:10:37.454Z,10.85
2022-11-07T03:13:04.936Z,11.43
2022-11-07T03:15:32.385Z,11.77
2022-11-07T03:17:59.776Z,11.88
2022-11-07T03:20:27.223Z,11.20
2022-11-07T03:22:54.595Z,11.27
2022-11-07T03:25:22.048Z,11.73
2022-11-07T03:27:50.607Z,12.05
2022-11-07T03:30:18.424Z,11.05
2022-11-07T03:32:46.193Z,11.75
2022-11-07T03:35:13.951Z,11.50
2022-11-07T03:37:41.418Z,11.23
2022-11-07T03:40:09.243Z,12.70
2022-11-07T03:42:40.698Z,11.60
2022-11-07T03:45:09.526Z,10.95
2022-11-07T03:47:38.415Z,10.70
2022-11-07T03:50:06.890Z,11.35
2022-11-07T03:52:34.316Z,12.40
2022-11-07T03:55:01.746Z,11.48
2022-11-07T03:57:29.129Z,11.10
2022-11-07T03:59:56.556Z,11.95
2022-11-07T04:02:24.057Z,11.25
2022-11-07T04:04:51.630Z,11.48
2022-11-07T04:07:19.137Z,11.05
2022-11-07T04:09:46.631Z,11.25
2022-11-07T04:12:32.524Z,11.82
2022-11-07T04:15:18.530Z,11.10
2022-11-07T04:17:45.928Z,11.18
2022-11-07T04:20:13.292Z,10.93
2022-11-07T04:22:40.674Z,11.70
2022-11-07T04:25:08.640Z,11.40
2022-11-07T04:27:44.976Z,10.93
2022-11-07T04:30:26.896Z,12.05
2022-11-07T04:32:56.455Z,11.82
2022-11-07T04:35:25.980Z,11.95
2022-11-07T04:37:53.827Z,11.55
2022-11-07T04:40:21.351Z,12.20
2022-11-07T04:42:49.383Z,12.10
2022-11-07T04:45:17.336Z,10.95
2022-11-07T04:47:44.900Z,10.98
2022-11-07T04:50:14.701Z,10.18
2022-11-07T04:52:42.180Z,10.63
2022-11-07T04:55:10.736Z,10.70
2022-11-07T04:57:38.136Z,12.50
2022-11-07T05:00:06.224Z,11.45
2022-11-07T05:02:33.778Z,11.80
2022-11-07T05:05:01.244Z,11.40
2022-11-07T05:07:28.700Z,12.18
2022-11-07T05:09:56.132Z,11.00
2022-11-07T05:12:23.531Z,11.55
2022-11-07T05:14:50.959Z,11.07
2022-11-07T05:17:18.583Z,11.57
2022-11-07T05:19:47.828Z,10.50
2022-11-07T05:22:33.763Z,10.05
2022-11-07T05:25:01.222Z,10.85
2022-11-07T05:27:28.579Z,12.02
2022-11-07T05:29:56.020Z,10.40
2022-11-07T05:32:23.592Z,11.57
2022-11-07T05:34:51.051Z,11.57
2022-11-07T05:37:18.436Z,12.02
2022-11-07T05:39:45.886Z,11.85
2022-11-07T05:42:14.394Z,11.60
2022-11-07T05:44:41.860Z,10.43
2022-11-07T05:47:09.252Z,12.60
2022-11-07T05:49:36.707Z,13.07
2022-11-07T05:52:04.352Z,12.38
2022-11-07T05:54:33.152Z,13.32
2022-11-07T05:57:00.552Z,13.15
2022-11-07T05:59:27.999Z,12.82
2022-11-07T06:01:55.486Z,12.32
2022-11-07T06:04:23.156Z,12.15
2022-11-07T06:06:50.571Z,13.07
2022-11-07T06:09:17.992Z,13.95
2022-11-07T06:11:45.483Z,14.18
2022-11-07T06:14:12.882Z,14.35
2022-11-07T06:16:40.270Z,15.20
2022-11-07T06:19:07.711Z,14.45
2022-11-07T06:21:35.113Z,15.25
2022-11-07T06:24:03.571Z,14.20
2022-11-07T06:26:31.080Z,13.18
2022-11-07T06:28:58.493Z,13.35
2022-11-07T06:31:25.863Z,12.68
2022-11-07T06:33:53.375Z,11.93
2022-11-07T06:36:20.885Z,13.00
2022-11-07T06:38:52.711Z,15.18
2022-11-07T06:41:20.491Z,14.00
2022-11-07T06:43:50.680Z,12.75
2022-11-07T06:46:19.816Z,13.48
2022-11-07T06:48:47.220Z,13.20
2022-11-07T06:51:14.603Z,12.70
2022-11-07T06:53:42.002Z,12.60
2022-11-07T06:56:14.350Z,12.25
2022-11-07T07:01:13.633Z,13.57
2022-11-07T07:03:42.541Z,12.32
2022-11-07T07:06:15.408Z,12.35
2022-11-07T07:08:43.649Z,12.60
2022-11-07T07:11:12.872Z,12.32
2022-11-07T07:13:40.903Z,12.30
2022-11-07T07:16:08.985Z,13.15
2022-11-07T07:18:36.508Z,13.25
2022-11-07T07:21:09.139Z,12.82
2022-11-07T07:23:38.635Z,14.27
2022-11-07T07:26:08.997Z,13.60
2022-11-07T07:28:37.447Z,14.80
2022-11-07T07:31:13.944Z,13.98
2022-11-07T07:33:45.877Z,14.20
2022-11-07T07:36:19.232Z,14.07
2022-11-07T07:38:49.135Z,13.13
2022-11-07T07:41:18.677Z,13.80
2022-11-07T07:43:46.113Z,13.15
2022-11-07T07:46:15.771Z,13.65
2022-11-07T07:48:43.290Z,13.55
2022-11-07T07:51:10.682Z,13.35
2022-11-07T07:53:38.105Z,14.43
2022-11-07T07:56:07.361Z,13.60
2022-11-07T07:58:34.821Z,14.02
2022-11-07T08:01:03.502Z,15.13
2022-11-07T08:03:50.595Z,14.13
2022-11-07T08:06:18.361Z,14.73
2022-11-07T08:08:45.774Z,14.00
2022-11-07T08:11:13.182Z,13.48
2022-11-07T08:13:40.627Z,14.27
2022-11-07T08:16:08.198Z,14.07
2022-11-07T08:18:40.044Z,14.95
2022-11-07T08:21:08.108Z,14.40
2022-11-07T08:23:36.061Z,16.25
2022-11-07T08:26:04.677Z,15.20
2022-11-07T08:28:34.278Z,17.35
2022-11-07T08:31:09.832Z,20.20
2022-11-07T08:33:37.660Z,20.15
2022-11-07T08:36:06.566Z,27.60
2022-11-07T08:38:35.142Z,27.92
2022-11-07T08:41:04.555Z,27.42
2022-11-07T08:43:32.298Z,26.83
2022-11-07T08:45:59.844Z,26.15
2022-11-07T08:48:27.287Z,26.55
2022-11-07T08:50:56.041Z,25.67
2022-11-07T08:53:24.764Z,23.75
2022-11-07T08:55:52.460Z,20.95
2022-11-07T08:58:20.111Z,21.30
2022-11-07T09:00:47.661Z,21.92
2022-11-07T09:03:43.571Z,21.58
2022-11-07T09:06:03.248Z,21.42
2022-11-07T09:08:31.900Z,21.15
2022-11-07T09:11:03.531Z,20.75
2022-11-07T09:13:31.906Z,20.63
2022-11-07T09:16:00.503Z,20.58
2022-11-07T09:18:28.456Z,20.60
2022-11-07T09:20:55.941Z,21.42
2022-11-07T09:23:23.406Z,21.35
2022-11-07T09:25:51.186Z,21.33
2022-11-07T09:28:18.640Z,21.15
2022-11-07T09:30:46.047Z,21.50
2022-11-07T09:33:13.915Z,20.67
2022-11-07T09:35:41.455Z,20.35
2022-11-07T09:38:08.975Z,20.80
2022-11-07T09:41:04.620Z,21.95
2022-11-07T09:43:41.130Z,20.52
2022-11-07T09:46:30.278Z,21.60
2022-11-07T09:49:19.764Z,20.42
2022-11-07T09:52:19.155Z,21.45
2022-11-07T09:54:50.761Z,19.08
2022-11-07T09:57:19.366Z,18.20
2022-11-07T09:59:59.229Z,17.05
2022-11-07T10:02:34.116Z,17.80
2022-11-07T10:05:03.842Z,20.08
2022-11-07T10:07:32.024Z,19.38
2022-11-07T10:09:59.367Z,20.13
2022-11-07T10:12:54.692Z,18.60
2022-11-07T10:15:39.359Z,20.70
2022-11-07T10:18:38.528Z,20.40
2022-11-07T10:21:37.091Z,21.27
2022-11-07T10:24:08.329Z,21.15
2022-11-07T10:26:35.948Z,22.77
2022-11-07T10:29:14.525Z,20.15
2022-11-07T10:31:46.986Z,20.20
2022-11-07T10:34:31.174Z,20.33
2022-11-07T10:36:58.727Z,19.52
2022-11-07T10:39:26.295Z,21.55
2022-11-07T10:42:07.221Z,21.77
2022-11-07T10:44:35.427Z,19.45
2022-11-07T10:47:03.573Z,19.05
2022-11-07T10:49:32.830Z,19.10
2022-11-07T10:52:15.927Z,19.25
2022-11-07T10:54:44.947Z,18.67
2022-11-07T10:57:14.910Z,18.67
2022-11-07T10:59:57.866Z,18.75
2022-11-07T11:02:28.581Z,22.17
2022-11-07T11:04:58.030Z,19.33
2022-11-07T11:07:33.186Z,20.23
2022-11-07T11:10:00.616Z,21.45
2022-11-07T11:12:34.145Z,21.80
2022-11-07T11:15:10.498Z,19.73
2022-11-07T11:17:37.942Z,19.95
2022-11-07T11:20:07.001Z,19.88
2022-11-07T11:22:41.257Z,19.40
2022-11-07T11:25:11.719Z,17.83
2022-11-07T11:27:39.721Z,18.38
2022-11-07T11:30:10.734Z,20.45
2022-11-07T11:33:07.125Z,18.90
2022-11-07T11:35:45.471Z,19.50
2022-11-07T11:38:33.229Z,19.60
2022-11-07T11:41:29.281Z,18.98
2022-11-07T11:44:15.042Z,20.15
2022-11-07T11:46:45.135Z,20.58
2022-11-07T11:49:16.898Z,21.63
2022-11-07T11:51:49.697Z,21.30
2022-11-07T11:54:17.327Z,20.20
2022-11-07T11:57:01.606Z,21.60
2022-11-07T11:59:38.841Z,22.20
2022-11-07T12:02:33.835Z,21.15
2022-11-07T12:05:13.374Z,23.17
2022-11-07T12:08:20.642Z,21.42
2022-11-07T12:10:57.123Z,23.08
2022-11-07T12:14:03.094Z,20.10
2022-11-07T12:16:39.292Z,20.00
2022-11-07T12:19:21.240Z,22.38
2022-11-07T12:21:57.775Z,20.38
2022-11-07T12:24:43.861Z,19.75
2022-11-07T12:27:25.693Z,19.67
2022-11-07T12:30:28.681Z,20.40
2022-11-07T12:33:15.171Z,20.38
2022-11-07T12:35:52.260Z,20.15
2022-11-07T12:38:38.011Z,18.95
2022-11-07T12:41:30.181Z,19.58
2022-11-07T12:44:06.878Z,20.38
2022-11-07T12:46:43.301Z,18.33
2022-11-07T12:49:38.488Z,16.45
2022-11-07T12:52:18.316Z,17.85
2022-11-07T12:55:15.562Z,17.88
2022-11-07T12:57:43.217Z,17.17
2022-11-07T13:00:36.960Z,17.77
2022-11-07T13:03:32.519Z,18.40
2022-11-07T13:06:02.972Z,18.25
2022-11-07T13:09:02.130Z,17.30
2022-11-07T13:12:01.674Z,18.13
2022-11-07T13:14:32.452Z,18.85
2022-11-07T13:17:13.946Z,19.85
2022-11-07T13:19:46.660Z,18.80
2022-11-07T13:22:17.010Z,17.45
2022-11-07T13:24:54.131Z,18.02
2022-11-07T13:27:24.072Z,20.33
2022-11-07T13:29:52.057Z,18.50
2022-11-07T13:32:19.662Z,18.48
2022-11-07T13:34:55.229Z,17.70
2022-11-07T13:37:32.343Z,19.70
2022-11-07T13:40:13.389Z,17.58
2022-11-07T13:42:42.634Z,16.60
2022-11-07T13:45:32.328Z,18.92
2022-11-07T13:48:01.240Z,19.60
2022-11-07T13:50:44.533Z,18.77
2022-11-07T13:53:25.379Z,18.20
2022-11-07T13:56:07.498Z,18.33
2022-11-07T13:58:36.258Z,20.45
2022-11-07T14:01:09.821Z,18.63
2022-11-07T14:03:37.560Z,18.45
2022-11-07T14:06:05.977Z,19.33
2022-11-07T14:08:37.379Z,18.35
2022-11-07T14:11:15.517Z,18.77
2022-11-07T14:13:43.040Z,20.20
2022-11-07T14:16:27.667Z,20.60
2022-11-07T14:19:00.954Z,21.52
2022-11-07T14:21:29.432Z,21.23
2022-11-07T14:23:57.508Z,23.75
2022-11-07T14:26:32.347Z,22.52
2022-11-07T14:29:03.733Z,23.77
2022-11-07T14:31:36.714Z,24.73
2022-11-07T14:34:16.546Z,22.35
2022-11-07T14:36:58.850Z,21.65
2022-11-07T14:39:29.167Z,25.17
2022-11-07T14:41:58.215Z,22.63
2022-11-07T14:44:53.299Z,27.38
2022-11-07T14:47:27.475Z,29.75
2022-11-07T14:49:55.928Z,28.20
2022-11-07T14:52:26.659Z,26.83
2022-11-07T14:55:08.417Z,26.23
2022-11-07T14:57:37.702Z,23.38
2022-11-07T15:00:07.303Z,24.27
2022-11-07T15:02:35.014Z,23.70
2022-11-07T15:05:10.612Z,25.20
2022-11-07T15:07:47.497Z,25.25
2022-11-07T15:10:25.487Z,23.98
2022-11-07T15:12:55.894Z,21.63
2022-11-07T15:15:41.469Z,22.40
2022-11-07T15:18:26.029Z,22.08
2022-11-07T15:21:01.151Z,23.08
2022-11-07T15:23:31.858Z,26.23
2022-11-07T15:26:08.484Z,27.80
2022-11-07T15:28:42.063Z,27.55
2022-11-07T15:31:38.948Z,24.65
2022-11-07T15:34:06.561Z,25.55
2022-11-07T15:36:38.529Z,23.23
2022-11-07T15:39:09.260Z,23.85
2022-11-07T15:41:36.693Z,22.88
2022-11-07T15:44:04.285Z,21.20
2022-11-07T15:46:35.057Z,23.02
2022-11-07T15:49:02.668Z,24.17
2022-11-07T15:51:30.482Z,24.98
2022-11-07T15:53:58.367Z,24.40
2022-11-07T15:56:26.262Z,25.25
2022-11-07T15:58:55.069Z,24.50
2022-11-07T16:01:23.385Z,21.63
2022-11-07T16:03:50.952Z,23.15
2022-11-07T16:06:31.638Z,22.23
2022-11-07T16:08:59.513Z,22.33
2022-11-07T16:11:27.197Z,21.38
2022-11-07T16:14:14.725Z,20.73
2022-11-07T16:16:43.228Z,22.38
2022-11-07T16:19:15.455Z,21.55
2022-11-07T16:21:43.476Z,26.77
2022-11-07T16:24:11.355Z,29.63
2022-11-07T16:26:39.987Z,32.15
2022-11-07T16:29:10.639Z,38.15
2022-11-07T16:31:38.097Z,32.88
2022-11-07T16:34:05.799Z,32.83
2022-11-07T16:36:35.256Z,33.92
2022-11-07T16:39:05.392Z,35.22
2022-11-07T16:41:33.137Z,33.38
2022-11-07T16:44:00.746Z,30.45
2022-11-07T16:46:29.060Z,29.95
2022-11-07T16:49:13.767Z,25.52
2022-11-07T16:51:45.058Z,22.63
2022-11-07T16:54:12.560Z,19.85
2022-11-07T16:56:40.302Z,20.33
2022-11-07T16:59:08.468Z,25.20
2022-11-07T17:01:36.461Z,23.23
2022-11-07T17:04:04.068Z,22.05
2022-11-07T17:06:34.224Z,23.17
2022-11-07T17:09:09.009Z,21.90
2022-11-07T17:11:40.663Z,22.95
2022-11-07T17:14:08.126Z,24.35
2022-11-07T17:16:36.899Z,24.00
2022-11-07T17:19:05.808Z,22.08
2022-11-07T17:21:36.844Z,20.65
2022-11-07T17:24:04.706Z,21.77
2022-11-07T17:26:38.844Z,20.83
2022-11-07T17:29:08.688Z,20.25
2022-11-07T17:31:36.120Z,21.00
2022-11-07T17:34:03.540Z,21.38
2022-11-07T17:36:36.996Z,22.55
2022-11-07T17:39:11.685Z,21.25
2022-11-07T17:41:40.896Z,22.90
2022-11-07T17:44:08.815Z,22.63
2022-11-07T17:46:37.540Z,22.38
2022-11-07T17:49:09.279Z,23.80
2022-11-07T17:51:36.721Z,23.55
2022-11-07T17:54:04.371Z,20.40
2022-11-07T17:56:33.124Z,23.25
2022-11-07T17:59:22.712Z,22.50
2022-11-07T18:01:50.590Z,24.10
2022-11-07T18:04:18.076Z,22.83
2022-11-07T18:06:45.548Z,26.33
2022-11-07T18:09:15.906Z,23.20
2022-11-07T18:11:44.269Z,22.40
2022-11-07T18:14:13.516Z,21.20
2022-11-07T18:16:41.001Z,21.42
2022-11-07T18:19:09.833Z,22.60
2022-11-07T18:21:37.290Z,19.92
2022-11-07T18:24:04.918Z,20.05
2022-11-07T18:26:33.470Z,22.85
2022-11-07T18:29:03.817Z,20.65
2022-11-07T18:31:31.507Z,20.63
2022-11-07T18:34:00.443Z,20.80
2022-11-07T18:36:28.342Z,21.17
2022-11-07T18:38:55.888Z,19.95
2022-11-07T18:41:23.777Z,21.13
2022-11-07T18:43:53.804Z,20.98
2022-11-07T18:46:22.117Z,20.13
2022-11-07T18:48:50.854Z,20.15
2022-11-07T18:51:22.913Z,19.85
2022-11-07T18:53:51.723Z,20.65
2022-11-07T18:56:20.394Z,18.60
2022-11-07T18:58:48.069Z,19.30
2022-11-07T19:01:17.798Z,19.65
2022-11-07T19:03:45.875Z,19.92
2022-11-07T19:06:15.749Z,19.95
2022-11-07T19:08:44.825Z,19.48
2022-11-07T19:11:14.372Z,19.63
2022-11-07T19:13:44.564Z,19.27
2022-11-07T19:16:17.387Z,20.05
2022-11-07T19:18:49.337Z,20.92
2022-11-07T19:21:20.854Z,21.38
2022-11-07T19:23:49.997Z,20.98
2022-11-07T19:26:19.230Z,21.77
2022-11-07T19:28:47.075Z,20.63
2022-11-07T19:31:14.684Z,20.15
2022-11-07T19:33:42.517Z,18.60
2022-11-07T19:36:18.301Z,21.58
2022-11-07T19:38:46.115Z,21.38
2022-11-07T19:41:14.655Z,20.23
2022-11-07T19:43:43.338Z,20.73
2022-11-07T19:46:14.460Z,20.70
2022-11-07T19:48:42.813Z,21.58
2022-11-07T19:51:19.894Z,22.45
2022-11-07T19:53:53.795Z,20.73
2022-11-07T19:58:48.758Z,19.63
2022-11-07T20:01:18.730Z,18.80
2022-11-07T20:03:48.399Z,19.58
2022-11-07T20:06:20.971Z,19.13
2022-11-07T20:08:48.564Z,18.00
2022-11-07T20:11:17.788Z,19.13
2022-11-07T20:13:45.487Z,20.02
2022-11-07T20:16:13.130Z,21.38
2022-11-07T20:18:41.163Z,19.27
2022-11-07T20:21:12.963Z,20.45
2022-11-07T20:23:41.724Z,18.42
2022-11-07T20:26:11.645Z,17.92
2022-11-07T20:28:39.103Z,18.67
2022-11-07T20:31:18.033Z,17.50
2022-11-07T20:33:45.537Z,17.80
2022-11-07T20:36:13.909Z,18.58
2022-11-07T20:38:43.105Z,17.88
2022-11-07T20:41:11.339Z,16.33
2022-11-07T20:43:39.743Z,16.52
2022-11-07T20:46:11.015Z,22.67
2022-11-07T20:48:39.501Z,23.05
2022-11-07T20:51:18.413Z,23.17
2022-11-07T20:53:50.106Z,27.92
2022-11-07T20:56:22.522Z,28.30
2022-11-07T20:58:50.220Z,25.33
2022-11-07T21:01:23.985Z,24.30
2022-11-07T21:03:51.737Z,27.92
2022-11-07T21:06:19.761Z,27.15
2022-11-07T21:08:48.642Z,26.30
2022-11-07T21:11:16.577Z,28.00
2022-11-07T21:13:51.149Z,31.00
2022-11-07T21:16:22.009Z,26.13
2022-11-07T21:18:50.859Z,23.20
2022-11-07T21:21:21.633Z,22.95
2022-11-07T21:23:50.344Z,20.20
2022-11-07T21:26:21.772Z,19.75
2022-11-07T21:28:49.486Z,19.83
2022-11-07T21:31:23.660Z,23.15
2022-11-07T21:33:51.800Z,25.40
2022-11-07T21:36:24.132Z,25.92
2022-11-07T21:38:54.089Z,27.35
2022-11-07T21:41:23.059Z,28.60
2022-11-07T21:43:52.212Z,29.50
2022-11-07T21:46:23.158Z,27.40
2022-11-07T21:48:50.707Z,25.77
2022-11-07T21:51:20.387Z,28.17
2022-11-07T21:53:48.375Z,34.38
2022-11-07T21:56:24.479Z,33.95
2022-11-07T21:58:54.256Z,28.92
2022-11-07T22:01:21.964Z,31.30
2022-11-07T22:04:08.198Z,28.25
2022-11-07T22:06:43.127Z,25.50
2022-11-07T22:09:13.759Z,30.60
2022-11-07T22:11:41.187Z,31.00
2022-11-07T22:14:12.207Z,34.83
2022-11-07T22:16:39.633Z,32.88
2022-11-07T22:19:12.020Z,29.38
2022-11-07T22:21:40.758Z,25.58
2022-11-07T22:24:08.936Z,27.13
2022-11-07T22:26:36.466Z,29.05
2022-11-07T22:29:03.991Z,23.63
2022-11-07T22:31:31.841Z,24.08
2022-11-07T22:34:00.303Z,22.50
2022-11-07T22:36:28.471Z,23.58
2022-11-07T22:38:57.670Z,20.90
2022-11-07T22:41:27.058Z,21.85
2022-11-07T22:43:55.359Z,23.65
2022-11-07T22:46:28.414Z,25.77
2022-11-07T22:48:56.752Z,25.55
2022-11-07T22:51:27.619Z,31.63
2022-11-07T22:53:57.160Z,28.73
2022-11-07T22:56:24.760Z,30.50
2022-11-07T22:58:52.272Z,28.80
2022-11-07T23:01:22.596Z,29.77
2022-11-07T23:03:50.772Z,34.67
2022-11-07T23:06:19.239Z,35.00
2022-11-07T23:08:47.135Z,29.30
2022-11-07T23:14:12.103Z,26.45
2022-11-07T23:16:43.943Z,26.45
2022-11-07T23:19:13.508Z,29.35
2022-11-07T23:21:41.590Z,26.00
2022-11-07T23:24:09.339Z,22.67
2022-11-07T23:26:37.038Z,21.15
2022-11-07T23:29:10.988Z,21.50
2022-11-07T23:31:40.500Z,19.77
2022-11-07T23:34:08.433Z,18.23
2022-11-07T23:36:36.452Z,18.33
2022-11-07T23:39:08.220Z,16.63
2022-11-07T23:41:35.851Z,17.98
2022-11-07T23:44:03.431Z,16.10
2022-11-07T23:46:49.485Z,18.77
2022-11-07T23:49:35.273Z,16.00
2022-11-07T23:52:03.757Z,16.52
2022-11-07T23:54:50.251Z,16.25
2022-11-07T23:57:18.103Z,17.38
